Time;durP1;ratioP1;P1;durP2;ratioP2;P2;SDS_P1;SDS_P2;PMS_P1;PMS_P2;Temp;Humidity;BMP_temperature;BMP_pressure;BME280_temperature;BME280_humidity;BME280_pressure;Samples;Min_cycle;Max_cycle;Signal;HPM_P1;HPM_P2
2023/04/05 00:01:11;;;;;;;7.93;3.90;;;-1.70;99.90;;;;;;5055929;28;20032;-82
2023/04/05 00:03:36;;;;;;;10.98;3.83;;;-1.70;99.90;;;;;;5024214;28;20433;-82
2023/04/05 00:06:04;;;;;;;4.97;3.20;;;-1.80;99.90;;;;;;5056755;28;20028;-82
2023/04/05 00:08:30;;;;;;;5.88;3.05;;;-1.80;99.90;;;;;;5056128;28;20025;-82
2023/04/05 00:10:55;;;;;;;4.38;2.47;;;-1.80;99.90;;;;;;5039242;28;20479;-82
2023/04/05 00:13:21;;;;;;;6.40;2.92;;;-1.80;99.90;;;;;;5023067;28;20037;-82
2023/04/05 00:15:48;;;;;;;6.22;3.28;;;-1.70;99.90;;;;;;5055841;28;20506;-82
2023/04/05 00:18:34;;;;;;;4.07;2.47;;;-1.80;99.90;;;;;;5057443;28;20029;-82
2023/04/05 00:21:00;;;;;;;5.38;2.70;;;-1.80;99.90;;;;;;5042027;28;20048;-82
2023/04/05 00:23:25;;;;;;;4.80;2.67;;;-1.80;99.90;;;;;;5057220;28;20033;-82
2023/04/05 00:25:52;;;;;;;5.40;2.90;;;-1.90;99.90;;;;;;5057365;28;20025;-82
2023/04/05 00:28:17;;;;;;;6.20;2.80;;;-2.00;99.90;;;;;;5055869;28;20486;-82
2023/04/05 00:30:43;;;;;;;3.95;2.55;;;-2.00;99.90;;;;;;5055826;28;20036;-82
2023/04/05 00:33:12;;;;;;;5.25;2.67;;;-2.00;99.90;;;;;;5039572;28;20029;-82
2023/04/05 00:35:38;;;;;;;5.68;2.47;;;-1.90;99.90;;;;;;5055597;28;20059;-82
2023/04/05 00:38:04;;;;;;;6.07;3.15;;;-1.90;99.90;;;;;;5057204;28;20033;-82
2023/04/05 00:40:29;;;;;;;4.90;2.60;;;-1.90;99.90;;;;;;5055129;28;20108;-82
2023/04/05 00:42:55;;;;;;;4.45;2.58;;;-2.00;99.90;;;;;;5039178;28;20028;-82
2023/04/05 00:45:21;;;;;;;6.47;3.05;;;-2.00;99.90;;;;;;5056182;28;20033;-82
2023/04/05 00:47:46;;;;;;;5.10;2.50;;;-2.10;99.90;;;;;;5055935;28;20029;-82
2023/04/05 00:50:13;;;;;;;4.53;2.65;;;-2.10;99.90;;;;;;5055552;28;20082;-82
2023/04/05 00:52:42;;;;;;;6.18;3.00;;;-2.10;99.90;;;;;;5039216;28;20112;-83
2023/04/05 00:55:12;;;;;;;6.18;2.95;;;-2.10;99.90;;;;;;5055606;28;20033;-82
2023/04/05 00:57:38;;;;;;;10.27;4.20;;;-2.10;99.90;;;;;;5057170;28;20593;-83
2023/04/05 01:00:08;;;;;;;11.95;5.15;;;-2.20;99.90;;;;;;5055628;28;20029;-82
2023/04/05 01:02:57;;;;;;;13.63;6.23;;;-2.10;99.90;;;;;;5055403;28;20029;-82
2023/04/05 01:05:25;;;;;;;12.57;5.60;;;-2.10;99.90;;;;;;5055724;28;20445;-82
2023/04/05 01:08:10;;;;;;;12.02;5.15;;;-2.10;99.90;;;;;;5056693;28;20036;-83
2023/04/05 01:10:41;;;;;;;9.85;4.60;;;-2.10;99.90;;;;;;5055508;28;20025;-83
2023/04/05 01:13:07;;;;;;;8.20;3.88;;;-2.00;99.90;;;;;;5055723;28;20032;-83
2023/04/05 01:15:33;;;;;;;6.95;2.58;;;-2.00;99.90;;;;;;5039054;28;20033;-83
2023/04/05 01:18:02;;;;;;;3.58;2.25;;;-2.00;99.90;;;;;;5055279;28;20025;-82
2023/04/05 01:20:35;;;;;;;5.50;2.50;;;-2.10;99.90;;;;;;5054748;28;20032;-83
2023/04/05 01:23:10;;;;;;;4.20;2.40;;;-2.20;99.90;;;;;;5056729;28;20032;-83
2023/04/05 01:25:50;;;;;;;4.60;1.95;;;-2.30;99.90;;;;;;5056524;28;20017;-83
2023/04/05 01:28:51;;;;;;;6.47;2.40;;;-2.40;99.90;;;;;;5056333;28;20032;-83
2023/04/05 01:31:25;;;;;;;5.97;2.57;;;-2.50;99.90;;;;;;5056351;28;20115;-83
2023/04/05 01:34:16;;;;;;;4.88;2.80;;;-2.50;99.90;;;;;;5054873;28;20272;-83
2023/04/05 01:36:55;;;;;;;5.88;2.67;;;-2.60;99.90;;;;;;5056460;28;20017;-83
2023/04/05 01:39:23;;;;;;;5.45;2.90;;;-2.60;99.90;;;;;;5054874;28;20039;-83
2023/04/05 01:41:49;;;;;;;5.72;3.25;;;-2.60;99.90;;;;;;5056412;28;20025;-83
2023/04/05 01:44:15;;;;;;;6.03;2.75;;;-2.70;99.90;;;;;;5055829;28;20025;-83
2023/04/05 01:46:40;;;;;;;4.75;2.75;;;-2.60;99.90;;;;;;5055929;28;20090;-83
2023/04/05 01:49:06;;;;;;;4.45;2.65;;;-2.60;99.90;;;;;;5056804;28;20479;-83
2023/04/05 01:51:32;;;;;;;5.28;2.90;;;-2.60;99.90;;;;;;5056657;28;20425;-83
2023/04/05 01:53:58;;;;;;;5.25;2.80;;;-2.50;99.90;;;;;;5054936;28;20020;-83
2023/04/05 01:56:24;;;;;;;4.20;2.80;;;-2.40;99.90;;;;;;5056581;28;20037;-83
2023/04/05 01:58:50;;;;;;;5.63;3.30;;;-2.40;99.90;;;;;;5055612;28;20032;-83
2023/04/05 02:01:16;;;;;;;5.22;2.50;;;-2.30;99.90;;;;;;5055294;28;20025;-83
2023/04/05 02:03:41;;;;;;;6.93;2.83;;;-2.30;99.90;;;;;;5056728;28;20024;-83
2023/04/05 02:06:07;;;;;;;6.78;3.10;;;-2.30;99.90;;;;;;5038460;28;20021;-83
2023/04/05 02:08:33;;;;;;;6.88;3.47;;;-2.20;99.90;;;;;;5038814;28;20037;-83
2023/04/05 02:10:58;;;;;;;5.97;3.13;;;-2.20;99.90;;;;;;5039031;28;20100;-83
2023/04/05 02:13:27;;;;;;;6.78;3.47;;;-2.30;99.90;;;;;;5039905;28;20032;-83
2023/04/05 02:15:52;;;;;;;14.43;6.60;;;-2.30;99.90;;;;;;5057594;28;20037;-83
2023/04/05 02:18:21;;;;;;;20.17;8.60;;;-2.30;99.90;;;;;;5058554;28;20049;-83
2023/04/05 02:20:50;;;;;;;17.67;9.07;;;-2.40;99.90;;;;;;5060892;28;20044;-83
2023/04/05 02:23:19;;;;;;;16.50;8.40;;;-2.30;99.90;;;;;;5062324;28;20017;-82
2023/04/05 02:25:45;;;;;;;17.42;7.57;;;-2.30;99.90;;;;;;5061162;28;20047;-83
2023/04/05 02:28:11;;;;;;;13.50;7.03;;;-2.30;99.90;;;;;;5045572;28;20036;-83
2023/04/05 02:30:37;;;;;;;21.30;8.93;;;-2.30;99.90;;;;;;5061868;28;20040;-82
2023/04/05 02:33:02;;;;;;;14.82;7.05;;;-2.40;99.90;;;;;;5028081;28;20037;-82
2023/04/05 02:35:28;;;;;;;17.55;7.03;;;-2.40;99.90;;;;;;5060578;28;20025;-83
2023/04/05 02:37:55;;;;;;;12.98;5.93;;;-2.40;99.90;;;;;;5059797;28;20029;-82
2023/04/05 02:40:21;;;;;;;11.30;5.20;;;-2.40;99.90;;;;;;5043742;28;20033;-82
2023/04/05 02:42:47;;;;;;;6.50;3.80;;;-2.40;99.90;;;;;;5043265;28;20112;-83
2023/04/05 02:45:13;;;;;;;5.30;3.20;;;-2.40;99.90;;;;;;5061096;28;20056;-82
2023/04/05 02:47:38;;;;;;;6.25;3.47;;;-2.40;99.90;;;;;;5058911;28;20025;-82
2023/04/05 02:50:05;;;;;;;4.80;2.92;;;-2.40;99.90;;;;;;5059059;28;20035;-82
2023/04/05 02:52:31;;;;;;;4.68;2.85;;;-2.40;99.90;;;;;;5036992;28;20048;-82
2023/04/05 02:54:56;;;;;;;5.50;3.10;;;-2.40;99.90;;;;;;5052419;28;20505;-82
2023/04/05 02:57:22;;;;;;;5.13;2.75;;;-2.40;99.90;;;;;;5053586;28;20116;-82
2023/04/05 02:59:48;;;;;;;7.88;4.28;;;-2.40;99.90;;;;;;5036287;28;20117;-83
2023/04/05 03:02:14;;;;;;;9.75;5.65;;;-2.40;99.90;;;;;;5035723;28;20055;-82
2023/04/05 03:04:40;;;;;;;18.27;8.82;;;-2.50;99.90;;;;;;5022315;28;20021;-83
2023/04/05 03:07:06;;;;;;;15.15;8.00;;;-2.50;99.90;;;;;;5056456;28;20360;-82
2023/04/05 03:09:32;;;;;;;18.20;7.10;;;-2.50;99.90;;;;;;5056027;28;20033;-82
2023/04/05 03:12:02;;;;;;;10.65;5.63;;;-2.50;99.90;;;;;;5056105;28;20037;-82
2023/04/05 03:14:34;;;;;;;8.50;4.88;;;-2.50;99.90;;;;;;5039681;28;20021;-82
2023/04/05 03:17:00;;;;;;;7.55;3.65;;;-2.50;99.90;;;;;;5056254;28;20479;-82
2023/04/05 03:19:25;;;;;;;7.20;3.85;;;-2.50;99.90;;;;;;5056314;28;20033;-82
2023/04/05 03:21:52;;;;;;;7.82;3.85;;;-2.60;99.90;;;;;;5055949;28;20025;-82
2023/04/05 03:24:18;;;;;;;8.00;3.28;;;-2.60;99.90;;;;;;5057386;28;20017;-82
2023/04/05 03:26:47;;;;;;;7.18;3.00;;;-2.70;99.90;;;;;;5055829;28;20096;-82
2023/04/05 03:29:13;;;;;;;6.65;3.95;;;-2.80;99.90;;;;;;5055887;28;20029;-82
2023/04/05 03:31:39;;;;;;;8.80;4.80;;;-2.90;99.90;;;;;;5038827;28;20430;-82
2023/04/05 03:34:05;;;;;;;25.98;12.48;;;-3.00;99.90;;;;;;5022686;28;20044;-82
2023/04/05 03:36:41;;;;;;;34.22;16.63;;;-3.10;99.90;;;;;;5056187;28;20028;-82
2023/04/05 03:39:11;;;;;;;26.88;14.18;;;-3.20;99.90;;;;;;5056694;28;20025;-82
2023/04/05 03:41:39;;;;;;;19.80;10.63;;;-3.20;99.90;;;;;;5038929;28;20430;-82
2023/04/05 03:44:05;;;;;;;15.30;7.45;;;-3.30;99.90;;;;;;5055655;28;20078;-82
2023/04/05 03:46:31;;;;;;;14.15;6.97;;;-3.30;99.90;;;;;;5055686;28;20025;-82
2023/04/05 03:48:58;;;;;;;12.95;6.57;;;-3.30;99.90;;;;;;5055393;28;20070;-82
2023/04/05 03:51:24;;;;;;;11.90;6.25;;;-3.30;99.90;;;;;;5055409;28;20122;-82
2023/04/05 03:53:50;;;;;;;8.43;4.20;;;-3.20;99.90;;;;;;5038926;28;20029;-81
2023/04/05 03:56:16;;;;;;;4.35;3.15;;;-3.20;99.90;;;;;;5056554;28;20029;-82
2023/04/05 03:58:42;;;;;;;11.40;5.75;;;-3.20;99.90;;;;;;5055937;28;20025;-82
2023/04/05 04:01:08;;;;;;;11.02;4.72;;;-3.20;99.90;;;;;;5055134;28;20501;-82
2023/04/05 04:03:36;;;;;;;8.93;4.18;;;-3.30;99.90;;;;;;5038577;28;20120;-82
2023/04/05 04:06:03;;;;;;;9.30;4.15;;;-3.30;99.90;;;;;;5039288;28;20031;-82
2023/04/05 04:08:28;;;;;;;7.75;4.05;;;-3.30;99.90;;;;;;5055330;28;20029;-82
2023/04/05 04:10:54;;;;;;;8.10;4.38;;;-3.30;99.90;;;;;;5055908;28;20437;-82
2023/04/05 04:13:20;;;;;;;9.00;4.95;;;-3.20;99.90;;;;;;5054373;28;20033;-82
2023/04/05 04:15:45;;;;;;;14.63;6.82;;;-3.20;99.90;;;;;;5054972;28;20522;-82
2023/04/05 04:18:11;;;;;;;12.90;6.13;;;-3.30;99.90;;;;;;5054638;28;20033;-82
2023/04/05 04:20:37;;;;;;;26.17;10.85;;;-3.30;99.90;;;;;;5037720;28;20025;-82
2023/04/05 04:23:05;;;;;;;28.00;13.05;;;-3.40;99.90;;;;;;5054468;28;20029;-82
2023/04/05 04:25:31;;;;;;;28.38;13.15;;;-3.40;99.90;;;;;;5055822;28;20070;-82
2023/04/05 04:27:57;;;;;;;21.50;10.60;;;-3.40;99.90;;;;;;5055768;28;20032;-82
2023/04/05 04:30:24;;;;;;;10.80;5.75;;;-3.40;99.90;;;;;;5055583;28;20029;-82
2023/04/05 04:32:53;;;;;;;17.55;8.15;;;-3.40;99.90;;;;;;5038009;28;20029;-82
2023/04/05 04:35:27;;;;;;;19.75;10.13;;;-3.50;99.90;;;;;;5054452;28;20028;-82
2023/04/05 04:37:57;;;;;;;19.17;9.85;;;-3.50;99.90;;;;;;5022638;28;20060;-82
2023/04/05 04:40:24;;;;;;;17.25;9.15;;;-3.60;99.90;;;;;;5055367;28;20087;-82
2023/04/05 04:42:50;;;;;;;28.02;14.40;;;-3.70;99.90;;;;;;5055224;28;20021;-82
2023/04/05 04:45:17;;;;;;;31.55;16.58;;;-3.70;99.90;;;;;;5054159;28;20498;-77
2023/04/05 04:47:47;;;;;;;32.10;17.48;;;-3.70;99.90;;;;;;5055368;28;20028;-77
2023/04/05 04:50:14;;;;;;;26.55;14.98;;;-3.80;99.90;;;;;;5053991;28;20040;-77
2023/04/05 04:52:41;;;;;;;25.65;13.02;;;-3.80;99.90;;;;;;5054162;28;20453;-77
2023/04/05 04:55:13;;;;;;;18.20;10.38;;;-3.70;99.90;;;;;;5053683;28;20445;-77
2023/04/05 04:57:40;;;;;;;17.40;9.65;;;-3.70;99.90;;;;;;5055005;28;20033;-77
2023/04/05 05:00:13;;;;;;;14.85;9.05;;;-3.70;99.90;;;;;;5054781;28;20021;-77
2023/04/05 05:02:41;;;;;;;10.82;7.25;;;-3.70;99.90;;;;;;5055609;28;20025;-77
2023/04/05 05:05:07;;;;;;;12.68;6.80;;;-3.70;99.90;;;;;;5055217;28;20391;-77
2023/04/05 05:07:34;;;;;;;10.02;6.57;;;-3.80;99.90;;;;;;5053974;28;20033;-77
2023/04/05 05:10:00;;;;;;;13.27;8.20;;;-3.80;99.90;;;;;;5055619;28;20514;-77
2023/04/05 05:12:26;;;;;;;12.50;7.00;;;-3.90;99.90;;;;;;5055529;28;20107;-77
2023/04/05 05:14:52;;;;;;;15.85;5.90;;;-3.90;99.90;;;;;;5055508;28;20056;-77
2023/04/05 05:17:18;;;;;;;16.70;6.88;;;-3.90;99.90;;;;;;5054146;28;20499;-77
2023/04/05 05:19:44;;;;;;;16.45;6.90;;;-3.90;99.90;;;;;;5055527;28;20163;-77
2023/04/05 05:22:10;;;;;;;20.05;7.28;;;-3.90;99.90;;;;;;5054821;28;20074;-77
2023/04/05 05:24:36;;;;;;;24.63;9.27;;;-3.90;99.90;;;;;;5053397;28;20112;-77
2023/04/05 05:27:02;;;;;;;20.88;9.48;;;-3.80;99.90;;;;;;5054785;28;20522;-77
2023/04/05 05:29:28;;;;;;;23.60;10.32;;;-3.90;99.90;;;;;;5054595;28;20032;-77
2023/04/05 05:31:54;;;;;;;24.23;9.98;;;-3.90;99.90;;;;;;5054495;28;20386;-77
2023/04/05 05:34:20;;;;;;;27.63;11.05;;;-3.80;99.90;;;;;;5053974;28;20039;-77
2023/04/05 05:36:46;;;;;;;25.63;10.82;;;-3.80;99.90;;;;;;5052766;28;20094;-77
2023/04/05 05:39:12;;;;;;;26.13;11.05;;;-3.70;99.90;;;;;;5053682;28;20032;-77
2023/04/05 05:41:38;;;;;;;26.23;11.38;;;-3.70;99.90;;;;;;5036425;28;20054;-77
2023/04/05 05:44:04;;;;;;;23.13;10.77;;;-3.60;99.90;;;;;;5054047;28;20021;-77
2023/04/05 05:46:30;;;;;;;18.75;9.00;;;-3.50;99.90;;;;;;5054092;28;20363;-77
2023/04/05 05:48:56;;;;;;;10.18;5.55;;;-3.50;99.90;;;;;;5054154;28;20058;-77
2023/04/05 05:51:21;;;;;;;7.97;4.38;;;-3.50;99.90;;;;;;5052653;28;20163;-77
2023/04/05 05:53:47;;;;;;;7.63;4.70;;;-3.50;99.90;;;;;;5050760;28;20398;-77
2023/04/05 05:56:13;;;;;;;6.78;4.63;;;-3.40;99.90;;;;;;5052388;28;20049;-77
2023/04/05 05:58:39;;;;;;;6.68;4.55;;;-3.40;99.90;;;;;;5054147;28;20397;-77
2023/04/05 06:01:10;;;;;;;10.45;4.90;;;-3.40;99.90;;;;;;5053104;28;20025;-77
2023/04/05 06:03:37;;;;;;;8.65;4.65;;;-3.40;99.90;;;;;;5036424;28;20024;-77
2023/04/05 06:06:04;;;;;;;9.18;5.05;;;-3.30;99.90;;;;;;5054042;28;20432;-77
2023/04/05 06:08:30;;;;;;;8.65;4.60;;;-3.30;99.90;;;;;;5054443;28;20505;-77
2023/04/05 06:10:57;;;;;;;9.63;5.32;;;-3.20;99.90;;;;;;5053260;28;20029;-76
2023/04/05 06:13:23;;;;;;;11.48;6.13;;;-3.20;99.90;;;;;;5053832;28;20108;-77
2023/04/05 06:15:49;;;;;;;8.85;5.72;;;-3.10;99.90;;;;;;5053536;28;20060;-77
2023/04/05 06:18:15;;;;;;;8.10;5.03;;;-3.10;99.90;;;;;;5053539;28;20083;-77
2023/04/05 06:20:44;;;;;;;8.48;5.40;;;-3.00;99.90;;;;;;5054084;28;20017;-77
2023/04/05 06:23:10;;;;;;;10.98;5.30;;;-3.00;99.90;;;;;;5055606;28;20518;-77
2023/04/05 06:25:36;;;;;;;9.35;5.60;;;-3.00;99.90;;;;;;5059672;28;20025;-77
2023/04/05 06:28:03;;;;;;;12.75;6.55;;;-2.90;99.90;;;;;;5060582;28;20028;-77
2023/04/05 06:30:30;;;;;;;11.85;6.03;;;-2.80;99.90;;;;;;5060291;28;20509;-77
2023/04/05 06:32:56;;;;;;;9.30;5.85;;;-2.80;99.90;;;;;;5061488;28;20028;-77
2023/04/05 06:35:23;;;;;;;9.27;6.05;;;-2.70;99.90;;;;;;5060852;28;20470;-77
2023/04/05 06:37:49;;;;;;;10.88;5.25;;;-2.70;99.90;;;;;;5059515;28;20052;-78
2023/04/05 06:40:15;;;;;;;9.60;5.38;;;-2.60;99.90;;;;;;5057838;28;20028;-78
2023/04/05 06:42:40;;;;;;;10.27;5.32;;;-2.60;99.90;;;;;;5056280;28;20029;-78
2023/04/05 06:45:07;;;;;;;9.55;5.38;;;-2.50;99.90;;;;;;5056326;28;20080;-78
2023/04/05 06:47:34;;;;;;;8.10;5.53;;;-2.50;99.90;;;;;;5056321;28;20125;-78
2023/04/05 06:50:01;;;;;;;7.90;5.18;;;-2.40;99.90;;;;;;5057592;28;20076;-78
2023/04/05 06:52:27;;;;;;;12.27;6.03;;;-2.30;99.90;;;;;;5057672;28;20053;-77
2023/04/05 06:54:53;;;;;;;10.68;5.38;;;-2.20;99.90;;;;;;5057497;28;20037;-77
2023/04/05 06:57:18;;;;;;;7.35;4.90;;;-2.20;99.90;;;;;;5055958;28;20044;-77
2023/04/05 06:59:44;;;;;;;8.65;5.55;;;-2.10;99.90;;;;;;5056253;28;20021;-77
2023/04/05 07:02:11;;;;;;;11.77;5.88;;;-2.10;99.90;;;;;;5056940;28;20027;-77
2023/04/05 07:04:37;;;;;;;8.77;4.97;;;-2.00;99.90;;;;;;5057263;28;20028;-77
2023/04/05 07:07:04;;;;;;;8.52;5.60;;;-1.90;99.90;;;;;;5057152;28;20437;-77
2023/04/05 07:09:31;;;;;;;14.05;6.20;;;-1.80;99.90;;;;;;5057082;28;20052;-77
2023/04/05 07:11:58;;;;;;;8.35;5.43;;;-1.70;99.90;;;;;;5056982;28;20029;-77
2023/04/05 07:14:24;;;;;;;8.57;4.68;;;-1.60;99.90;;;;;;5055901;28;20410;-77
2023/04/05 07:16:53;;;;;;;14.23;5.30;;;-1.50;99.90;;;;;;5055613;28;20029;-77
2023/04/05 07:19:19;;;;;;;9.90;4.72;;;-1.40;99.90;;;;;;5056948;28;20387;-77
2023/04/05 07:21:45;;;;;;;7.53;5.07;;;-1.30;99.90;;;;;;5038797;28;20025;-77
2023/04/05 07:24:11;;;;;;;9.90;5.28;;;-1.30;99.90;;;;;;5055337;28;20548;-77
2023/04/05 07:26:36;;;;;;;8.68;4.90;;;-1.10;99.90;;;;;;5057156;28;20025;-77
2023/04/05 07:29:07;;;;;;;6.45;4.47;;;-1.00;99.90;;;;;;5057027;28;20040;-77
2023/04/05 07:31:33;;;;;;;9.35;5.18;;;-0.90;99.90;;;;;;5056820;28;20504;-77
2023/04/05 07:34:00;;;;;;;8.48;5.05;;;-0.80;99.90;;;;;;5056030;28;20038;-77
2023/04/05 07:36:26;;;;;;;8.88;4.57;;;-0.60;99.90;;;;;;5056907;28;20075;-77
2023/04/05 07:38:55;;;;;;;6.82;4.55;;;-0.50;99.90;;;;;;5055807;28;20051;-77
2023/04/05 07:41:22;;;;;;;9.27;5.30;;;-0.30;99.90;;;;;;5055430;28;20112;-77
2023/04/05 07:43:48;;;;;;;9.45;5.65;;;-0.10;99.90;;;;;;5056357;28;20461;-77
2023/04/05 07:46:14;;;;;;;9.30;5.70;;;0.00;99.90;;;;;;5055269;28;20021;-77
2023/04/05 07:48:40;;;;;;;10.00;6.13;;;0.10;99.90;;;;;;5057203;28;20103;-77
2023/04/05 07:51:08;;;;;;;11.88;5.97;;;0.30;99.90;;;;;;5055223;28;20509;-77
2023/04/05 07:53:35;;;;;;;10.23;5.85;;;0.40;99.90;;;;;;5056250;28;20025;-77
2023/04/05 07:56:05;;;;;;;18.40;6.60;;;0.60;99.90;;;;;;5055096;28;20114;-77
2023/04/05 07:58:32;;;;;;;11.10;6.50;;;0.70;99.90;;;;;;5054881;28;20025;-77
2023/04/05 08:01:02;;;;;;;9.80;5.70;;;0.80;99.90;;;;;;5055213;28;20029;-78
2023/04/05 08:03:29;;;;;;;10.85;6.18;;;1.00;99.90;;;;;;5056401;28;20025;-77
2023/04/05 08:05:55;;;;;;;10.80;5.53;;;1.10;99.90;;;;;;5056184;28;20039;-77
2023/04/05 08:08:21;;;;;;;9.05;5.03;;;1.20;99.90;;;;;;5055867;28;20037;-77
2023/04/05 08:10:47;;;;;;;7.70;5.40;;;1.30;99.90;;;;;;5055927;28;20479;-77
2023/04/05 08:13:13;;;;;;;9.45;5.50;;;1.40;99.90;;;;;;5055936;28;20044;-77
2023/04/05 08:15:39;;;;;;;7.97;5.07;;;1.50;99.90;;;;;;5056075;28;20025;-77
2023/04/05 08:18:05;;;;;;;10.10;5.35;;;1.70;99.90;;;;;;5055704;28;20107;-77
2023/04/05 08:20:31;;;;;;;10.18;5.10;;;1.80;99.90;;;;;;5054785;28;20071;-77
2023/04/05 08:22:57;;;;;;;10.45;5.47;;;2.00;99.90;;;;;;5056766;28;20021;-78
2023/04/05 08:25:23;;;;;;;8.32;4.78;;;2.10;99.90;;;;;;5055920;28;20036;-77
2023/04/05 08:27:48;;;;;;;6.53;4.22;;;2.30;99.90;;;;;;5054183;28;20099;-77
2023/04/05 08:30:15;;;;;;;7.68;4.32;;;2.40;99.10;;;;;;5054233;28;20052;-77
2023/04/05 08:32:41;;;;;;;7.00;4.53;;;2.50;98.20;;;;;;5054617;28;20382;-77
2023/04/05 08:35:07;;;;;;;6.75;3.92;;;2.70;96.60;;;;;;5055458;28;20025;-77
2023/04/05 08:37:34;;;;;;;6.07;3.83;;;2.80;95.30;;;;;;5038084;28;20025;-77
2023/04/05 08:40:00;;;;;;;8.48;4.25;;;2.90;93.40;;;;;;5054457;28;20104;-77
2023/04/05 08:42:31;;;;;;;7.18;3.45;;;3.00;92.70;;;;;;5054604;28;20489;-77
2023/04/05 08:44:58;;;;;;;;;;;3.10;91.20;;;;;;5054577;28;20471;-77
2023/04/05 08:47:24;;;;;;;6.72;4.00;;;3.20;91.30;;;;;;5053851;28;19905;-77
2023/04/05 08:49:50;;;;;;;5.47;3.65;;;3.40;91.40;;;;;;5055250;28;20449;-77
2023/04/05 08:52:16;;;;;;;8.98;3.90;;;3.50;90.90;;;;;;5054274;28;20025;-77
2023/04/05 08:54:42;;;;;;;6.10;3.63;;;3.60;90.40;;;;;;5053846;28;20082;-77
2023/04/05 08:57:08;;;;;;;8.18;3.30;;;3.70;88.90;;;;;;5053919;28;20070;-77
2023/04/05 08:59:39;;;;;;;4.63;3.47;;;3.80;85.80;;;;;;5053966;28;20118;-77
2023/04/05 09:02:13;;;;;;;5.80;3.67;;;3.90;84.90;;;;;;5055121;28;20025;-77
2023/04/05 09:04:43;;;;;;;7.68;3.40;;;4.00;81.30;;;;;;5055310;28;20539;-77
2023/04/05 09:07:14;;;;;;;5.88;3.70;;;4.10;80.80;;;;;;5054137;28;20418;-77
2023/04/05 09:10:02;;;;;;;3.83;2.70;;;4.20;79.20;;;;;;5055056;28;20033;-77
2023/04/05 09:12:29;;;;;;;8.88;3.60;;;4.30;78.90;;;;;;5054588;28;20065;-77
2023/04/05 09:14:55;;;;;;;5.95;3.17;;;4.30;79.60;;;;;;5054574;28;20029;-77
2023/04/05 09:17:22;;;;;;;4.72;3.22;;;4.40;78.30;;;;;;5054034;28;20033;-77
2023/04/05 09:19:51;;;;;;;5.00;3.08;;;4.50;78.70;;;;;;5053514;28;20479;-77
2023/04/05 09:22:17;;;;;;;3.85;2.80;;;4.70;76.00;;;;;;5037562;28;20093;-77
2023/04/05 09:24:45;;;;;;;5.88;3.33;;;4.80;75.90;;;;;;5037148;28;20059;-77
2023/04/05 09:27:14;;;;;;;4.20;2.65;;;5.00;77.90;;;;;;5037119;28;20398;-77
2023/04/05 09:29:43;;;;;;;6.55;2.70;;;5.20;75.40;;;;;;5054821;28;20475;-77
2023/04/05 09:32:11;;;;;;;4.85;3.08;;;5.30;72.10;;;;;;5053079;28;20029;-77
2023/04/05 09:34:37;;;;;;;6.63;3.15;;;5.40;72.70;;;;;;5053387;28;20021;-77
2023/04/05 09:37:18;;;;;;;5.45;3.13;;;5.40;72.60;;;;;;5036600;28;20059;-77
2023/04/05 09:39:44;;;;;;;4.80;3.13;;;5.50;73.10;;;;;;5055002;28;20082;-77
2023/04/05 09:42:15;;;;;;;6.22;2.80;;;5.60;70.60;;;;;;5053325;28;20032;-77
2023/04/05 09:44:50;;;;;;;5.35;2.95;;;5.60;70.60;;;;;;5052870;28;20075;-77
2023/04/05 09:47:17;;;;;;;5.00;3.03;;;5.70;69.20;;;;;;5054178;28;20021;-77
2023/04/05 09:49:42;;;;;;;3.95;3.00;;;5.70;70.00;;;;;;5054634;28;20112;-77
2023/04/05 09:52:32;;;;;;;7.85;4.13;;;5.60;68.90;;;;;;5052853;28;20564;-77
2023/04/05 09:55:01;;;;;;;6.95;2.70;;;5.80;70.20;;;;;;5054016;28;20032;-77
2023/04/05 09:57:31;;;;;;;4.97;3.08;;;5.90;69.30;;;;;;5052846;28;20091;-77
2023/04/05 09:59:57;;;;;;;5.38;2.85;;;5.90;67.60;;;;;;5053529;28;20017;-77
2023/04/05 10:02:23;;;;;;;4.97;2.42;;;5.90;68.80;;;;;;5053571;28;20036;-77
2023/04/05 10:04:49;;;;;;;4.10;2.70;;;6.00;66.90;;;;;;5054218;28;20021;-77
2023/04/05 10:07:17;;;;;;;4.68;3.00;;;6.10;65.40;;;;;;5052270;28;20025;-77
2023/04/05 10:09:47;;;;;;;4.45;2.72;;;6.10;66.90;;;;;;5054044;28;20053;-77
2023/04/05 10:12:24;;;;;;;4.45;2.80;;;6.10;65.30;;;;;;5053037;28;20029;-77
2023/04/05 10:14:50;;;;;;;4.05;2.65;;;6.20;68.30;;;;;;5053074;28;20025;-76
2023/04/05 10:17:26;;;;;;;5.22;2.95;;;6.40;66.60;;;;;;5053723;28;20040;-76
2023/04/05 10:20:21;;;;;;;6.43;2.75;;;6.50;67.10;;;;;;5052042;28;20501;-77
2023/04/05 10:22:58;;;;;;;5.78;2.90;;;6.50;67.80;;;;;;5044318;28;20029;-77
2023/04/05 10:25:27;;;;;;;7.45;3.10;;;6.60;68.90;;;;;;5053657;28;20029;-77
2023/04/05 10:27:55;;;;;;;5.15;2.90;;;6.70;68.10;;;;;;5053388;28;20021;-77
2023/04/05 10:30:24;;;;;;;4.57;2.95;;;6.60;65.40;;;;;;5052202;28;20033;-77
2023/04/05 10:33:11;;;;;;;5.85;2.90;;;6.60;64.10;;;;;;5052164;28;20021;-77
2023/04/05 10:36:30;;;;;;;4.30;2.60;;;6.60;64.10;;;;;;5053419;28;20024;-76
2023/04/05 10:38:56;;;;;;;5.85;3.03;;;6.50;62.90;;;;;;5011408;28;20513;-77
2023/04/05 10:41:22;;;;;;;4.75;2.58;;;6.60;62.60;;;;;;4995187;28;20017;-77
2023/04/05 10:43:50;;;;;;;5.70;2.78;;;6.70;66.20;;;;;;5031233;28;20037;-77
2023/04/05 10:46:22;;;;;;;5.40;3.08;;;6.80;63.00;;;;;;5053443;28;20062;-76
2023/04/05 10:49:20;;;;;;;3.92;2.70;;;6.90;62.90;;;;;;5053006;28;20021;-77
2023/04/05 10:51:46;;;;;;;4.47;2.70;;;7.00;64.00;;;;;;5037554;28;20029;-77
2023/04/05 10:54:12;;;;;;;5.22;2.75;;;7.20;62.50;;;;;;5051976;28;20033;-77
2023/04/05 10:56:39;;;;;;;5.10;2.42;;;7.20;62.20;;;;;;5052846;28;20044;-77
2023/04/05 10:59:05;;;;;;;3.70;2.30;;;7.30;63.20;;;;;;5053155;28;20107;-77
2023/04/05 11:01:32;;;;;;;4.20;2.40;;;7.40;64.20;;;;;;5052967;28;20467;-77
2023/04/05 11:04:10;;;;;;;4.25;2.40;;;7.50;63.70;;;;;;5035338;28;20394;-76
2023/04/05 11:06:36;;;;;;;5.47;2.38;;;7.60;59.70;;;;;;5051814;28;20115;-77
2023/04/05 11:09:19;;;;;;;4.70;2.42;;;7.70;59.50;;;;;;5051681;28;20038;-77
2023/04/05 11:11:47;;;;;;;4.03;2.58;;;7.70;60.40;;;;;;5051447;28;20029;-77
2023/04/05 11:14:21;;;;;;;5.00;2.70;;;7.90;59.80;;;;;;5052990;28;20025;-77
2023/04/05 11:16:52;;;;;;;5.63;2.85;;;8.00;61.50;;;;;;5052837;28;20501;-77
2023/04/05 11:19:18;;;;;;;4.30;2.40;;;8.00;61.60;;;;;;5051407;28;20394;-77
2023/04/05 11:21:44;;;;;;;3.83;2.08;;;8.00;56.90;;;;;;5052817;28;20032;-77
2023/04/05 11:24:14;;;;;;;4.72;3.03;;;7.90;55.60;;;;;;5052888;28;20025;-76
2023/04/05 11:26:39;;;;;;;4.63;2.72;;;7.80;54.20;;;;;;5055050;28;20060;-77
2023/04/05 11:29:09;;;;;;;3.55;2.47;;;7.80;56.80;;;;;;5054910;28;20110;-76
2023/04/05 11:31:35;;;;;;;3.97;2.40;;;7.80;56.60;;;;;;5056035;28;20032;-76
2023/04/05 11:34:11;;;;;;;4.32;2.63;;;7.80;54.80;;;;;;5056034;28;20033;-77
2023/04/05 11:36:46;;;;;;;3.17;2.30;;;7.80;57.20;;;;;;5054853;28;20501;-76
2023/04/05 11:39:19;;;;;;;3.50;2.30;;;7.90;60.10;;;;;;5056019;28;20029;-77
2023/04/05 11:41:54;;;;;;;5.82;2.50;;;8.10;60.80;;;;;;5055966;28;20099;-77
2023/04/05 11:44:21;;;;;;;4.78;2.45;;;8.30;56.90;;;;;;5055893;28;20053;-77
2023/04/05 11:46:46;;;;;;;4.90;2.65;;;8.30;59.60;;;;;;5055802;28;20052;-76
2023/04/05 11:49:13;;;;;;;6.90;2.53;;;8.40;58.40;;;;;;5054435;28;20482;-77
2023/04/05 11:51:41;;;;;;;4.28;2.50;;;8.60;64.30;;;;;;5055990;28;20040;-76
2023/04/05 11:54:08;;;;;;;3.97;2.58;;;8.70;59.50;;;;;;5054435;28;20028;-76
2023/04/05 11:56:34;;;;;;;10.88;6.18;;;8.80;59.20;;;;;;5054884;28;20106;-76
2023/04/05 11:59:00;;;;;;;6.72;3.60;;;8.60;55.30;;;;;;5054297;28;20036;-76
2023/04/05 12:01:25;;;;;;;4.70;2.75;;;8.40;55.80;;;;;;5055546;28;20025;-76
2023/04/05 12:03:56;;;;;;;7.15;3.80;;;8.50;58.60;;;;;;5037593;28;20021;-76
2023/04/05 12:06:23;;;;;;;5.70;2.77;;;8.60;57.30;;;;;;5055473;28;20063;-76
2023/04/05 12:08:49;;;;;;;5.30;3.15;;;8.70;60.50;;;;;;5055334;28;20028;-76
2023/04/05 12:11:22;;;;;;;4.57;2.80;;;8.90;57.40;;;;;;5055911;28;20048;-76
2023/04/05 12:13:52;;;;;;;4.45;2.47;;;9.00;58.00;;;;;;5054045;28;20025;-76
2023/04/05 12:16:18;;;;;;;4.10;2.45;;;9.00;56.60;;;;;;5054059;28;20494;-76
2023/04/05 12:18:43;;;;;;;4.13;2.58;;;9.00;55.00;;;;;;5054184;28;20063;-76
2023/04/05 12:21:10;;;;;;;4.07;2.33;;;8.90;57.10;;;;;;5054002;28;20475;-76
2023/04/05 12:23:36;;;;;;;4.82;2.63;;;8.90;57.40;;;;;;5054521;28;20128;-76
2023/04/05 12:26:03;;;;;;;6.43;2.67;;;8.90;56.40;;;;;;5054995;28;20021;-77
2023/04/05 12:28:57;;;;;;;4.30;2.28;;;9.10;59.10;;;;;;5055468;28;20112;-76
2023/04/05 12:31:44;;;;;;;4.88;2.55;;;9.20;57.70;;;;;;5054143;28;20044;-76
2023/04/05 12:34:14;;;;;;;3.75;2.10;;;9.40;58.20;;;;;;5053850;28;20028;-76
2023/04/05 12:36:44;;;;;;;4.85;2.55;;;9.50;55.20;;;;;;5054145;28;20029;-76
2023/04/05 12:39:10;;;;;;;5.22;2.60;;;9.50;55.50;;;;;;5055245;28;20032;-77
2023/04/05 12:41:36;;;;;;;4.75;2.67;;;9.40;55.00;;;;;;5055636;28;20037;-77
2023/04/05 12:44:15;;;;;;;3.85;2.45;;;9.50;58.30;;;;;;5055414;28;20053;-77
2023/04/05 12:46:43;;;;;;;4.80;2.50;;;9.60;55.60;;;;;;5053964;28;20478;-77
2023/04/05 12:49:14;;;;;;;4.70;2.90;;;9.60;54.50;;;;;;5055640;28;20490;-77
2023/04/05 12:51:45;;;;;;;4.32;2.47;;;9.70;55.30;;;;;;5054921;28;20028;-77
2023/04/05 12:54:13;;;;;;;4.78;2.90;;;9.80;58.10;;;;;;5055712;28;20396;-77